Time;durP1;ratioP1;P1;durP2;ratioP2;P2;SDS_P1;SDS_P2;PMS_P1;PMS_P2;Temp;Humidity;BMP_temperature;BMP_pressure;BME280_temperature;BME280_humidity;BME280_pressure;Samples;Min_cycle;Max_cycle;Signal;HPM_P1;HPM_P2
2020/12/19 00:01:35;;;;;;;21.42;13.82;;;0.10;99.90;;;;;;4717689;30;20052;-78
2020/12/19 00:04:02;;;;;;;45.83;15.82;;;0.20;99.90;;;;;;4703225;30;20052;-78
2020/12/19 00:06:29;;;;;;;27.98;15.43;;;0.20;99.90;;;;;;4718083;30;20049;-79
2020/12/19 00:08:56;;;;;;;34.42;15.35;;;0.10;99.90;;;;;;4717705;30;20079;-79
2020/12/19 00:11:27;;;;;;;38.20;15.02;;;0.10;99.90;;;;;;4731598;30;20059;-78
2020/12/19 00:13:59;;;;;;;43.97;16.00;;;0.20;99.90;;;;;;4722312;30;20062;-78
2020/12/19 00:16:30;;;;;;;27.25;13.48;;;0.20;99.90;;;;;;4700789;30;20096;-78
2020/12/19 00:19:05;;;;;;;32.35;14.50;;;0.20;99.90;;;;;;4715613;30;20137;-79
2020/12/19 00:21:33;;;;;;;30.60;15.07;;;0.20;99.90;;;;;;4735177;30;20059;-79
2020/12/19 00:24:06;;;;;;;55.50;14.73;;;0.20;99.90;;;;;;4736031;30;20052;-78
2020/12/19 00:26:38;;;;;;;36.05;14.93;;;0.20;99.90;;;;;;4737225;30;20052;-78
2020/12/19 00:29:06;;;;;;;35.63;14.68;;;0.20;99.90;;;;;;4737744;30;20048;-79
2020/12/19 00:31:33;;;;;;;33.42;14.20;;;0.20;99.90;;;;;;4740584;30;20521;-78
2020/12/19 00:34:00;;;;;;;35.33;15.18;;;0.10;99.90;;;;;;4755716;30;20158;-78
2020/12/19 00:36:32;;;;;;;29.48;13.55;;;0.10;99.90;;;;;;4742520;30;20047;-79
2020/12/19 00:39:05;;;;;;;31.08;13.95;;;0.10;99.90;;;;;;4727242;30;20078;-78
2020/12/19 00:41:37;;;;;;;32.05;13.57;;;0.10;99.90;;;;;;4742391;30;20048;-78
2020/12/19 00:44:04;;;;;;;23.00;12.73;;;0.10;99.90;;;;;;4741094;30;20048;-78
2020/12/19 00:46:36;;;;;;;22.75;13.48;;;0.10;99.90;;;;;;4741735;30;20532;-80
2020/12/19 00:49:04;;;;;;;25.52;13.32;;;0.10;99.90;;;;;;4741412;30;20098;-78
2020/12/19 00:51:31;;;;;;;17.85;12.60;;;0.20;99.90;;;;;;4741335;30;20575;-78
2020/12/19 00:53:58;;;;;;;25.90;12.85;;;0.20;99.90;;;;;;4726775;30;20106;-78
2020/12/19 00:56:29;;;;;;;37.00;13.60;;;0.20;99.90;;;;;;4742194;30;20394;-78
2020/12/19 00:59:01;;;;;;;21.95;12.35;;;0.20;99.90;;;;;;4741065;30;20052;-78
2020/12/19 01:01:33;;;;;;;36.83;12.85;;;0.20;99.90;;;;;;4727239;30;20102;-78
2020/12/19 01:04:05;;;;;;;33.90;11.98;;;0.20;99.90;;;;;;4755814;30;20208;-78
2020/12/19 01:06:32;;;;;;;25.42;13.00;;;0.10;99.90;;;;;;4741353;30;20424;-78
2020/12/19 01:09:05;;;;;;;91.78;15.63;;;0.10;99.90;;;;;;4755668;30;20504;-78
2020/12/19 01:11:37;;;;;;;25.50;12.73;;;0.10;99.90;;;;;;4741972;30;20152;-79
2020/12/19 01:14:05;;;;;;;23.15;12.77;;;0.10;99.90;;;;;;4740974;30;20056;-78
2020/12/19 01:16:38;;;;;;;23.48;12.38;;;0.10;99.90;;;;;;4741299;30;20066;-78
2020/12/19 01:19:05;;;;;;;25.40;12.65;;;0.10;99.90;;;;;;4741109;30;20065;-78
2020/12/19 01:21:37;;;;;;;22.25;12.68;;;0.10;99.90;;;;;;4736934;30;20044;-78
2020/12/19 01:24:09;;;;;;;21.70;12.77;;;0.10;99.90;;;;;;4723006;30;20143;-78
2020/12/19 01:26:40;;;;;;;21.38;12.93;;;0.10;99.90;;;;;;4723267;30;20484;-78
2020/12/19 01:29:07;;;;;;;21.65;12.95;;;0.10;99.90;;;;;;4722772;30;20048;-79
2020/12/19 01:31:39;;;;;;;27.00;13.57;;;0.20;99.90;;;;;;4738096;30;20398;-78
2020/12/19 01:34:06;;;;;;;17.77;12.50;;;0.20;99.90;;;;;;4723420;30;20052;-78
2020/12/19 01:36:33;;;;;;;32.10;13.05;;;0.20;99.90;;;;;;4723426;30;20576;-78
2020/12/19 01:39:04;;;;;;;45.47;12.52;;;0.20;99.90;;;;;;4720954;30;20053;-78
2020/12/19 01:41:36;;;;;;;39.22;12.60;;;0.20;99.90;;;;;;4721004;30;20469;-78
2020/12/19 01:44:05;;;;;;;26.23;13.05;;;0.10;99.90;;;;;;4734980;30;20075;-78
2020/12/19 01:46:58;;;;;;;25.42;12.88;;;0.00;99.90;;;;;;4721464;30;20167;-78
2020/12/19 01:49:31;;;;;;;36.72;13.65;;;0.00;99.90;;;;;;4720582;30;20081;-78
2020/12/19 01:52:05;;;;;;;44.47;13.63;;;0.00;99.90;;;;;;4721164;30;20052;-78
2020/12/19 01:54:32;;;;;;;35.15;12.57;;;0.00;99.90;;;;;;4734705;30;20143;-78
2020/12/19 01:57:01;;;;;;;33.35;13.40;;;0.00;99.90;;;;;;4720402;30;20468;-78
2020/12/19 01:59:32;;;;;;;21.58;11.50;;;0.00;99.90;;;;;;4719950;30;20438;-78
2020/12/19 02:02:08;;;;;;;17.55;11.48;;;0.00;99.90;;;;;;4706144;30;20537;-78
2020/12/19 02:04:39;;;;;;;23.15;11.95;;;0.10;99.90;;;;;;4720763;30;20052;-78
2020/12/19 02:07:06;;;;;;;18.05;11.93;;;0.10;99.90;;;;;;4720377;30;20104;-78
2020/12/19 02:09:38;;;;;;;30.83;12.68;;;0.00;99.90;;;;;;4718064;30;20052;-78
2020/12/19 02:12:10;;;;;;;21.13;12.00;;;0.00;99.90;;;;;;4720666;30;20537;-78
2020/12/19 02:14:42;;;;;;;23.60;12.13;;;0.00;99.90;;;;;;4734364;30;20053;-78
2020/12/19 02:17:14;;;;;;;22.02;11.93;;;0.00;99.90;;;;;;4734213;30;20068;-78
2020/12/19 02:19:42;;;;;;;19.83;12.07;;;0.00;99.90;;;;;;4734154;30;20488;-78
2020/12/19 02:22:09;;;;;;;24.60;12.02;;;0.00;99.90;;;;;;4705188;30;20605;-80
2020/12/19 02:24:36;;;;;;;25.23;11.15;;;0.00;99.90;;;;;;4719509;30;20107;-79
2020/12/19 02:27:04;;;;;;;22.77;11.70;;;0.00;99.90;;;;;;4719657;30;20040;-78
2020/12/19 02:29:31;;;;;;;30.15;11.05;;;0.00;99.90;;;;;;4733824;30;20092;-78
2020/12/19 02:32:01;;;;;;;14.65;10.45;;;0.00;99.90;;;;;;4733937;30;20057;-78
2020/12/19 02:34:28;;;;;;;21.42;11.57;;;-0.10;99.90;;;;;;4733938;30;20406;-78
2020/12/19 02:37:00;;;;;;;26.15;11.73;;;0.00;99.90;;;;;;4734051;30;20052;-78
2020/12/19 02:39:32;;;;;;;17.38;10.70;;;0.00;99.90;;;;;;4733993;30;20053;-78
2020/12/19 02:41:59;;;;;;;20.98;9.88;;;0.00;99.90;;;;;;4719607;30;20044;-78
2020/12/19 02:44:30;;;;;;;19.60;10.45;;;0.00;99.90;;;;;;4719393;30;20506;-78
2020/12/19 02:46:57;;;;;;;19.85;11.05;;;0.00;99.90;;;;;;4719189;30;20104;-78
2020/12/19 02:49:24;;;;;;;16.35;10.40;;;-0.10;99.90;;;;;;4718535;30;20470;-79
2020/12/19 02:51:56;;;;;;;17.92;10.43;;;0.00;99.90;;;;;;4734036;30;20076;-78
2020/12/19 02:54:23;;;;;;;18.38;10.48;;;0.00;99.90;;;;;;4733655;30;20071;-79
2020/12/19 02:56:54;;;;;;;20.15;9.85;;;0.00;99.90;;;;;;4705422;30;20119;-78
2020/12/19 02:59:21;;;;;;;13.43;9.50;;;0.00;99.90;;;;;;4719007;30;20275;-78
2020/12/19 03:01:48;;;;;;;13.85;10.10;;;0.00;99.90;;;;;;4704866;30;20424;-78
2020/12/19 03:04:15;;;;;;;23.13;10.60;;;-0.10;99.90;;;;;;4704517;30;20045;-79
2020/12/19 03:06:42;;;;;;;42.47;12.27;;;0.00;99.90;;;;;;4719281;30;20049;-78
2020/12/19 03:09:09;;;;;;;28.02;11.50;;;-0.10;99.90;;;;;;4719014;30;20048;-78
2020/12/19 03:11:35;;;;;;;22.98;10.90;;;-0.20;99.90;;;;;;4718995;30;20048;-78
2020/12/19 03:14:02;;;;;;;26.33;10.18;;;-0.20;99.90;;;;;;4733548;30;20052;-78
2020/12/19 03:16:29;;;;;;;18.05;11.02;;;-0.30;99.90;;;;;;4719079;30;20530;-78
2020/12/19 03:18:56;;;;;;;25.00;11.20;;;-0.30;99.90;;;;;;4718824;30;20077;-78
2020/12/19 03:21:28;;;;;;;25.90;11.27;;;-0.30;99.90;;;;;;4719844;30;20107;-78
2020/12/19 03:23:55;;;;;;;15.90;8.82;;;-0.30;99.90;;;;;;4719005;30;20052;-78
2020/12/19 03:26:22;;;;;;;23.98;10.43;;;-0.20;99.90;;;;;;4733136;30;20052;-78
2020/12/19 03:28:48;;;;;;;16.60;9.75;;;-0.20;99.90;;;;;;4733004;30;20544;-78
2020/12/19 03:31:20;;;;;;;21.17;10.07;;;-0.30;99.90;;;;;;4733276;30;20107;-78
2020/12/19 03:33:52;;;;;;;27.10;10.43;;;-0.30;99.90;;;;;;4734485;30;20586;-78
2020/12/19 03:36:20;;;;;;;17.13;10.23;;;-0.30;99.90;;;;;;4704283;30;20064;-78
2020/12/19 03:38:47;;;;;;;17.50;9.30;;;-0.30;99.90;;;;;;4718398;30;20503;-78
2020/12/19 03:41:18;;;;;;;19.23;9.13;;;-0.30;99.90;;;;;;4719099;30;20321;-79
2020/12/19 03:43:50;;;;;;;14.93;9.95;;;-0.30;99.90;;;;;;4718298;30;20143;-78
2020/12/19 03:46:22;;;;;;;52.55;11.00;;;-0.20;99.90;;;;;;4718542;30;20413;-78
2020/12/19 03:48:49;;;;;;;21.15;8.70;;;-0.20;99.90;;;;;;4718284;30;20107;-78
2020/12/19 03:51:16;;;;;;;21.08;9.85;;;-0.20;99.90;;;;;;4718016;30;20055;-78
2020/12/19 03:53:42;;;;;;;19.15;9.32;;;-0.20;99.90;;;;;;4718397;30;20080;-78
2020/12/19 03:56:09;;;;;;;18.10;9.18;;;-0.30;99.90;;;;;;4732848;30;20068;-78
2020/12/19 03:58:36;;;;;;;22.50;8.50;;;-0.30;99.90;;;;;;4718186;30;20063;-79
2020/12/19 04:01:03;;;;;;;17.05;9.50;;;-0.40;99.90;;;;;;4717542;30;20057;-78
2020/12/19 04:03:30;;;;;;;13.02;8.73;;;-0.40;99.90;;;;;;4703656;30;20481;-78
2020/12/19 04:05:57;;;;;;;18.65;9.07;;;-0.30;99.90;;;;;;4718102;30;20057;-78
2020/12/19 04:08:28;;;;;;;16.23;8.10;;;-0.30;99.90;;;;;;4718348;30;20049;-79
2020/12/19 04:10:55;;;;;;;28.60;9.82;;;-0.30;99.90;;;;;;4704040;30;20057;-78
2020/12/19 04:13:27;;;;;;;18.20;8.70;;;-0.40;99.90;;;;;;4718807;30;20053;-78
2020/12/19 04:15:54;;;;;;;13.63;9.05;;;-0.40;99.90;;;;;;4732691;30;20048;-79
2020/12/19 04:18:21;;;;;;;19.13;9.43;;;-0.40;99.90;;;;;;4717841;30;20518;-78
2020/12/19 04:20:53;;;;;;;16.05;9.23;;;-0.40;99.90;;;;;;4718733;30;20055;-80
2020/12/19 04:23:20;;;;;;;13.90;10.07;;;-0.40;99.90;;;;;;4732274;30;20152;-78
2020/12/19 04:25:51;;;;;;;20.05;9.13;;;-0.40;99.90;;;;;;4718606;30;20063;-78
2020/12/19 04:28:18;;;;;;;17.95;9.55;;;-0.30;99.90;;;;;;4717819;30;20111;-78
2020/12/19 04:30:50;;;;;;;12.00;8.82;;;-0.30;99.90;;;;;;4732646;30;20132;-78
2020/12/19 04:33:16;;;;;;;13.50;9.55;;;-0.30;99.90;;;;;;4717936;30;20147;-80
2020/12/19 04:35:47;;;;;;;14.40;9.32;;;-0.30;99.90;;;;;;4718154;30;20059;-78
2020/12/19 04:38:14;;;;;;;15.90;10.45;;;-0.30;99.90;;;;;;4717538;30;20063;-77
2020/12/19 04:40:45;;;;;;;18.83;11.90;;;-0.30;99.90;;;;;;4717860;30;20048;-78
2020/12/19 04:43:18;;;;;;;17.92;12.25;;;-0.30;99.90;;;;;;4717766;30;20512;-78
2020/12/19 04:45:46;;;;;;;16.90;9.25;;;-0.20;99.90;;;;;;4717854;30;20055;-78
2020/12/19 04:48:17;;;;;;;17.40;9.30;;;-0.20;99.90;;;;;;4717670;30;20049;-79
2020/12/19 04:50:49;;;;;;;16.05;10.18;;;-0.20;99.90;;;;;;4704049;30;20059;-78
2020/12/19 04:53:21;;;;;;;16.13;9.18;;;-0.30;99.90;;;;;;4718601;30;20207;-78
2020/12/19 04:55:52;;;;;;;17.55;10.70;;;-0.20;99.90;;;;;;4718453;30;20049;-78
2020/12/19 04:58:19;;;;;;;14.15;9.70;;;-0.20;99.90;;;;;;4717623;30;20071;-78
2020/12/19 05:00:50;;;;;;;12.75;8.65;;;-0.20;99.90;;;;;;4732358;30;20549;-78
2020/12/19 05:03:22;;;;;;;14.27;9.50;;;-0.20;99.90;;;;;;4717696;30;20055;-78
2020/12/19 05:05:48;;;;;;;12.23;8.75;;;-0.20;99.90;;;;;;4718471;30;20597;-81
2020/12/19 05:08:14;;;;;;;15.55;9.43;;;-0.20;99.90;;;;;;4717146;30;20049;-79
2020/12/19 05:10:46;;;;;;;14.18;8.68;;;-0.20;99.90;;;;;;4718007;30;20055;-79
2020/12/19 05:13:19;;;;;;;11.38;8.18;;;-0.20;99.90;;;;;;4718553;30;20059;-81
2020/12/19 05:15:45;;;;;;;12.93;8.95;;;-0.30;99.90;;;;;;4720563;30;20133;-80
2020/12/19 05:18:12;;;;;;;10.65;7.82;;;-0.20;99.90;;;;;;4720780;30;20457;-80
2020/12/19 05:20:38;;;;;;;11.95;7.97;;;-0.30;99.90;;;;;;4720755;30;20057;-79
2020/12/19 05:23:08;;;;;;;10.43;7.72;;;-0.30;99.90;;;;;;4720911;30;20148;-80
2020/12/19 05:25:40;;;;;;;12.68;8.52;;;-0.30;99.90;;;;;;4720974;30;20110;-80
2020/12/19 05:28:07;;;;;;;10.20;7.90;;;-0.30;99.90;;;;;;4720211;30;20107;-80
2020/12/19 05:30:34;;;;;;;10.20;7.63;;;-0.30;99.90;;;;;;4720555;30;20080;-81
2020/12/19 05:33:01;;;;;;;10.60;8.00;;;-0.30;99.90;;;;;;4720504;30;20061;-80
2020/12/19 05:35:27;;;;;;;9.48;7.30;;;-0.20;99.90;;;;;;4720316;30;20135;-80
2020/12/19 05:38:05;;;;;;;11.02;7.53;;;-0.20;99.90;;;;;;4720387;30;20060;-80
2020/12/19 05:40:33;;;;;;;9.65;7.78;;;-0.20;99.90;;;;;;4720419;30;20058;-80
2020/12/19 05:43:00;;;;;;;11.57;8.10;;;-0.20;99.90;;;;;;4734976;30;20059;-79
2020/12/19 05:45:29;;;;;;;10.10;7.60;;;-0.20;99.90;;;;;;4734426;30;20059;-80
2020/12/19 05:47:56;;;;;;;11.57;7.88;;;-0.20;99.90;;;;;;4720046;30;20060;-79
2020/12/19 05:50:27;;;;;;;12.50;8.10;;;-0.20;99.90;;;;;;4720982;30;20052;-79
2020/12/19 05:53:02;;;;;;;12.02;7.25;;;-0.10;99.90;;;;;;4720970;30;20095;-79
2020/12/19 05:55:33;;;;;;;14.25;10.75;;;-0.20;99.90;;;;;;4720139;30;20147;-80
2020/12/19 05:58:03;;;;;;;13.43;10.75;;;-0.20;99.90;;;;;;4719929;30;20103;-79
2020/12/19 06:00:31;;;;;;;9.70;7.93;;;-0.20;99.90;;;;;;4734830;30;20056;-80
2020/12/19 06:03:01;;;;;;;12.65;8.93;;;-0.20;99.90;;;;;;4719342;30;20064;-79
2020/12/19 06:05:33;;;;;;;11.45;8.32;;;-0.20;99.90;;;;;;4720229;30;20067;-79
2020/12/19 06:08:00;;;;;;;10.23;7.55;;;-0.20;99.90;;;;;;4719897;30;20064;-80
2020/12/19 06:10:27;;;;;;;10.30;7.13;;;-0.30;99.90;;;;;;4719880;30;20053;-79
2020/12/19 06:12:58;;;;;;;10.20;7.60;;;-0.20;99.90;;;;;;4720643;30;20418;-79
2020/12/19 06:15:49;;;;;;;9.50;7.13;;;-0.20;99.90;;;;;;4719629;30;20079;-79
2020/12/19 06:18:51;;;;;;;9.50;7.07;;;-0.30;99.90;;;;;;4719697;30;20138;-80
2020/12/19 06:21:19;;;;;;;11.57;7.70;;;-0.30;99.90;;;;;;4734901;30;20079;-79
2020/12/19 06:23:50;;;;;;;10.88;8.73;;;-0.30;99.90;;;;;;4719773;30;20044;-79
2020/12/19 06:26:17;;;;;;;12.32;8.45;;;-0.30;99.90;;;;;;4719622;30;20484;-79
2020/12/19 06:28:44;;;;;;;11.95;9.23;;;-0.30;99.90;;;;;;4719856;30;20049;-79
2020/12/19 06:31:22;;;;;;;9.60;7.75;;;-0.30;99.90;;;;;;4720052;30;20060;-79
2020/12/19 06:33:53;;;;;;;12.15;8.25;;;-0.30;99.90;;;;;;4720627;30;20053;-79
2020/12/19 06:36:20;;;;;;;9.75;7.32;;;-0.30;99.90;;;;;;4721396;30;20296;-80
2020/12/19 06:39:12;;;;;;;11.68;7.95;;;-0.30;99.90;;;;;;4719756;30;20073;-79
2020/12/19 06:42:00;;;;;;;14.23;9.45;;;-0.30;99.90;;;;;;4719854;30;20053;-79
2020/12/19 06:44:32;;;;;;;10.95;7.50;;;-0.40;99.90;;;;;;4719629;30;20506;-80
2020/12/19 06:47:18;;;;;;;10.80;7.80;;;-0.40;99.90;;;;;;4719035;30;20048;-80
2020/12/19 06:49:52;;;;;;;12.40;9.20;;;-0.50;99.90;;;;;;4733370;30;20417;-79
2020/12/19 06:52:25;;;;;;;17.60;12.95;;;-0.50;99.90;;;;;;4722940;30;20067;-80
2020/12/19 06:54:56;;;;;;;19.27;12.73;;;-0.50;99.90;;;;;;4735510;30;20067;-80
2020/12/19 06:57:28;;;;;;;13.00;9.00;;;-0.50;99.90;;;;;;4736659;30;20058;-80
2020/12/19 07:00:21;;;;;;;10.65;8.23;;;-0.40;99.90;;;;;;4736194;30;20055;-80
2020/12/19 07:02:59;;;;;;;8.98;7.28;;;-0.50;99.90;;;;;;4736305;30;20055;-79
2020/12/19 07:05:35;;;;;;;10.48;7.78;;;-0.50;99.90;;;;;;4736774;30;20117;-80
2020/12/19 07:08:22;;;;;;;9.15;7.22;;;-0.40;99.90;;;;;;4734456;30;20156;-79
2020/12/19 07:10:50;;;;;;;9.52;6.35;;;-0.40;99.90;;;;;;4732255;30;20064;-80
2020/12/19 07:13:21;;;;;;;9.57;6.87;;;-0.40;99.90;;;;;;4718915;30;20076;-79
2020/12/19 07:15:53;;;;;;;10.13;7.43;;;-0.50;99.90;;;;;;4718796;30;20053;-79
2020/12/19 07:18:24;;;;;;;10.13;7.63;;;-0.50;99.90;;;;;;4718333;30;20053;-79
2020/12/19 07:21:07;;;;;;;12.40;9.23;;;-0.50;99.90;;;;;;4704701;30;20502;-79
2020/12/19 07:23:35;;;;;;;9.00;7.43;;;-0.50;99.90;;;;;;4718527;30;20053;-79
2020/12/19 07:26:03;;;;;;;52.47;31.23;;;-0.50;99.90;;;;;;4718631;30;20147;-78
2020/12/19 07:28:34;;;;;;;14.73;10.40;;;-0.50;99.90;;;;;;4718029;30;20147;-81
2020/12/19 07:31:06;;;;;;;11.75;7.88;;;-0.50;99.90;;;;;;4720109;30;20072;-79
2020/12/19 07:33:32;;;;;;;10.27;6.82;;;-0.50;99.90;;;;;;4717706;30;20048;-80
2020/12/19 07:36:00;;;;;;;9.85;7.38;;;-0.60;99.90;;;;;;4713070;30;20140;-80
2020/12/19 07:38:27;;;;;;;8.98;7.15;;;-0.60;99.90;;;;;;4699433;30;20056;-79
2020/12/19 07:40:55;;;;;;;9.65;6.80;;;-0.60;99.90;;;;;;4709698;30;20048;-80
2020/12/19 07:43:22;;;;;;;10.35;6.80;;;-0.60;99.90;;;;;;4724907;30;20048;-79
2020/12/19 07:45:56;;;;;;;10.00;6.63;;;-0.50;99.90;;;;;;4734568;30;20074;-79
2020/12/19 07:48:24;;;;;;;9.20;6.53;;;-0.50;99.90;;;;;;4733303;30;20090;-79
2020/12/19 07:50:55;;;;;;;8.98;6.40;;;-0.50;99.90;;;;;;4720185;30;20052;-79
2020/12/19 07:53:27;;;;;;;7.70;6.38;;;-0.50;99.90;;;;;;4735209;30;20055;-79
2020/12/19 07:55:54;;;;;;;9.55;6.97;;;-0.50;99.90;;;;;;4722721;30;20541;-80
2020/12/19 07:58:21;;;;;;;9.85;6.60;;;-0.60;99.90;;;;;;4719250;30;20060;-80
2020/12/19 08:00:47;;;;;;;8.85;6.35;;;-0.50;99.90;;;;;;4725314;30;20076;-81
2020/12/19 08:03:14;;;;;;;14.10;9.18;;;-0.50;99.90;;;;;;4716373;30;20236;-79
2020/12/19 08:05:41;;;;;;;14.75;8.35;;;-0.40;99.90;;;;;;4716433;30;20064;-79
2020/12/19 08:08:11;;;;;;;41.63;18.83;;;-0.30;99.90;;;;;;4715760;30;20055;-80
2020/12/19 08:10:38;;;;;;;22.10;11.90;;;-0.30;99.90;;;;;;4717121;30;20482;-80
2020/12/19 08:13:10;;;;;;;34.05;17.45;;;-0.30;99.90;;;;;;4734301;30;20063;-79
2020/12/19 08:15:37;;;;;;;24.88;13.68;;;-0.30;99.90;;;;;;4734641;30;20052;-80
2020/12/19 08:18:07;;;;;;;42.58;17.77;;;-0.30;99.90;;;;;;4733224;30;20094;-80
2020/12/19 08:20:40;;;;;;;17.92;11.25;;;-0.30;99.90;;;;;;4733053;30;20056;-79
2020/12/19 08:23:13;;;;;;;10.90;8.10;;;-0.30;99.90;;;;;;4732842;30;20103;-79
2020/12/19 08:25:40;;;;;;;11.13;8.02;;;-0.30;99.90;;;;;;4734388;30;20052;-80
2020/12/19 08:28:19;;;;;;;12.32;9.73;;;-0.20;99.90;;;;;;4733666;30;20060;-80
2020/12/19 08:30:45;;;;;;;11.07;8.88;;;-0.20;99.90;;;;;;4737761;30;20087;-80
2020/12/19 08:33:12;;;;;;;10.98;8.13;;;-0.20;99.90;;;;;;4721476;30;20058;-79
2020/12/19 08:35:45;;;;;;;19.90;11.82;;;-0.20;99.90;;;;;;4719204;30;20053;-79
2020/12/19 08:38:23;;;;;;;44.80;25.25;;;-0.20;99.90;;;;;;4711972;30;20139;-79
2020/12/19 08:41:02;;;;;;;14.25;10.85;;;-0.20;99.90;;;;;;4712941;30;20064;-79
2020/12/19 08:43:39;;;;;;;19.45;12.68;;;-0.10;99.90;;;;;;4712966;30;20049;-79
2020/12/19 08:46:13;;;;;;;15.65;10.55;;;-0.10;99.90;;;;;;4718506;30;20064;-79
2020/12/19 08:48:43;;;;;;;13.40;9.00;;;-0.10;99.90;;;;;;4721755;30;20107;-79
2020/12/19 08:51:14;;;;;;;14.25;9.35;;;-0.10;99.90;;;;;;4716365;30;20514;-79
2020/12/19 08:53:46;;;;;;;23.60;15.75;;;-0.10;99.90;;;;;;4702447;30;20063;-79
2020/12/19 08:56:18;;;;;;;23.48;15.18;;;-0.10;99.90;;;;;;4712736;30;20522;-79
2020/12/19 08:58:53;;;;;;;18.08;13.00;;;-0.10;99.90;;;;;;4700935;30;20057;-79
2020/12/19 09:01:20;;;;;;;25.85;16.02;;;0.00;99.90;;;;;;4714904;30;20072;-79
2020/12/19 09:03:47;;;;;;;20.40;14.40;;;0.00;99.90;;;;;;4718987;30;20057;-79
2020/12/19 09:06:15;;;;;;;17.88;12.55;;;0.10;99.90;;;;;;4735126;30;20144;-79
2020/12/19 09:08:44;;;;;;;14.32;11.38;;;0.00;99.90;;;;;;4735231;30;20122;-79
2020/12/19 09:11:28;;;;;;;20.65;13.85;;;0.00;99.90;;;;;;4721982;30;20525;-79
2020/12/19 09:14:09;;;;;;;23.85;14.82;;;0.10;99.90;;;;;;4735889;30;20279;-79
2020/12/19 09:16:53;;;;;;;20.70;14.55;;;0.10;99.90;;;;;;4734337;30;20543;-80
2020/12/19 09:19:20;;;;;;;15.97;12.17;;;0.20;99.90;;;;;;4735432;30;20746;-81
2020/12/19 09:21:57;;;;;;;9.38;7.68;;;0.20;99.90;;;;;;4737604;30;20086;-80
2020/12/19 09:24:26;;;;;;;10.27;7.40;;;0.20;99.90;;;;;;4727706;30;20056;-80
2020/12/19 09:26:53;;;;;;;11.05;8.27;;;0.30;99.90;;;;;;4719558;30;20049;-80
2020/12/19 09:29:21;;;;;;;10.13;7.72;;;0.30;99.90;;;;;;4718722;30;20128;-80
2020/12/19 09:31:48;;;;;;;10.70;7.80;;;0.40;99.90;;;;;;4706957;30;20116;-80
2020/12/19 09:34:20;;;;;;;12.75;8.45;;;0.40;99.90;;;;;;4726401;30;20060;-80
2020/12/19 09:36:47;;;;;;;19.05;10.25;;;0.40;99.90;;;;;;4720208;30;20056;-79
2020/12/19 09:39:14;;;;;;;14.15;10.65;;;0.40;99.90;;;;;;4718884;30;20048;-80
2020/12/19 09:41:41;;;;;;;13.75;9.63;;;0.40;99.90;;;;;;4719224;30;20100;-80
2020/12/19 09:44:08;;;;;;;12.02;8.20;;;0.40;99.90;;;;;;4718310;30;20052;-80
2020/12/19 09:46:35;;;;;;;13.13;8.80;;;0.40;99.90;;;;;;4718636;30;20057;-80
2020/12/19 09:49:02;;;;;;;13.18;9.38;;;0.40;99.90;;;;;;4718082;30;20087;-80
2020/12/19 09:51:34;;;;;;;18.30;12.32;;;0.40;99.90;;;;;;4718776;30;20053;-79
2020/12/19 09:54:06;;;;;;;20.75;14.93;;;0.50;99.90;;;;;;4718889;30;20057;-79
2020/12/19 09:56:37;;;;;;;19.55;13.85;;;0.50;99.90;;;;;;4717039;30;20052;-82
2020/12/19 09:59:05;;;;;;;23.10;15.10;;;0.50;99.90;;;;;;4720202;30;20108;-80
2020/12/19 10:01:31;;;;;;;14.77;11.35;;;0.40;99.90;;;;;;4725617;30;20452;-80
2020/12/19 10:03:58;;;;;;;12.95;9.15;;;0.40;99.90;;;;;;4731967;30;20068;-80
2020/12/19 10:06:25;;;;;;;11.55;8.75;;;0.40;99.90;;;;;;4736003;30;20162;-80
2020/12/19 10:08:57;;;;;;;9.15;7.03;;;0.40;99.90;;;;;;4727655;30;20513;-80
2020/12/19 10:11:25;;;;;;;9.75;6.85;;;0.30;99.90;;;;;;4735763;30;20505;-79
2020/12/19 10:13:52;;;;;;;9.73;7.32;;;0.30;99.90;;;;;;4735639;30;20110;-80
2020/12/19 10:16:19;;;;;;;10.10;7.65;;;0.30;99.90;;;;;;4735221;30;20114;-79
2020/12/19 10:18:46;;;;;;;12.25;8.88;;;0.40;99.90;;;;;;4734140;30;20060;-79
2020/12/19 10:21:14;;;;;;;12.77;8.98;;;0.30;99.90;;;;;;4717868;30;20052;-79
2020/12/19 10:23:41;;;;;;;13.20;9.25;;;0.30;99.90;;;;;;4710283;30;20062;-79
2020/12/19 10:26:10;;;;;;;13.32;9.40;;;0.30;99.90;;;;;;4718967;30;20056;-79
2020/12/19 10:28:38;;;;;;;15.00;10.65;;;0.40;99.90;;;;;;4718759;30;20127;-79
2020/12/19 10:31:05;;;;;;;20.30;14.00;;;0.40;99.90;;;;;;4717951;30;20611;-79
2020/12/19 10:33:32;;;;;;;22.83;14.85;;;0.50;99.90;;;;;;4718815;30;20056;-80
2020/12/19 10:35:59;;;;;;;20.13;13.25;;;0.50;99.90;;;;;;4721506;30;20049;-80
2020/12/19 10:38:27;;;;;;;21.58;15.00;;;0.50;99.90;;;;;;4728440;30;20064;-80
2020/12/19 10:40:54;;;;;;;18.52;12.38;;;0.60;99.90;;;;;;4699957;30;20059;-80
2020/12/19 10:43:26;;;;;;;15.60;11.25;;;0.60;99.90;;;;;;4723504;30;20056;-79
2020/12/19 10:45:53;;;;;;;10.70;8.25;;;0.60;99.90;;;;;;4734711;30;20050;-80
2020/12/19 10:48:25;;;;;;;12.10;9.18;;;0.70;99.90;;;;;;4713159;30;20059;-79
2020/12/19 10:50:52;;;;;;;13.13;9.00;;;0.70;99.90;;;;;;4714061;30;20189;-79
2020/12/19 10:53:19;;;;;;;13.65;9.68;;;0.70;99.90;;;;;;4734361;30;20056;-80
2020/12/19 10:55:47;;;;;;;14.73;10.85;;;0.70;99.90;;;;;;4735370;30;20052;-80
2020/12/19 10:58:14;;;;;;;15.80;10.55;;;0.70;99.90;;;;;;4733832;30;20187;-80
2020/12/19 11:00:41;;;;;;;13.77;9.88;;;0.70;99.90;;;;;;4735129;30;20171;-80
2020/12/19 11:03:14;;;;;;;15.23;10.55;;;0.80;99.90;;;;;;4705324;30;20053;-80
2020/12/19 11:05:41;;;;;;;14.85;10.73;;;0.90;99.90;;;;;;4726459;30;20138;-80
2020/12/19 11:08:09;;;;;;;21.30;12.55;;;0.90;99.90;;;;;;4736943;30;20055;-80
2020/12/19 11:10:42;;;;;;;15.77;10.70;;;1.00;99.90;;;;;;4735501;30;20120;-80
2020/12/19 11:13:14;;;;;;;;;;;0.90;99.90;;;;;;4733404;30;20058;-80
2020/12/19 11:15:41;;;;;;;13.32;9.10;;;0.90;99.90;;;;;;4748220;30;20303;-80
2020/12/19 11:18:09;;;;;;;16.42;9.95;;;0.90;99.90;;;;;;4732705;30;20051;-79
2020/12/19 11:20:37;;;;;;;15.13;9.70;;;0.90;99.90;;;;;;4734498;30;20076;-79
2020/12/19 11:23:04;;;;;;;13.65;9.52;;;1.00;99.90;;;;;;4734173;30;20051;-80
2020/12/19 11:25:31;;;;;;;11.52;7.88;;;1.10;99.90;;;;;;4734226;30;20086;-80
2020/12/19 11:27:59;;;;;;;11.82;9.20;;;1.10;99.90;;;;;;4733091;30;20059;-80
2020/12/19 11:30:26;;;;;;;12.30;8.93;;;1.20;99.90;;;;;;4734064;30;20106;-79
2020/12/19 11:32:54;;;;;;;12.23;8.52;;;1.20;99.90;;;;;;4733092;30;20692;-79
2020/12/19 11:35:21;;;;;;;12.27;9.18;;;1.20;99.90;;;;;;4733649;30;20056;-79
2020/12/19 11:37:49;;;;;;;11.38;8.30;;;1.30;99.90;;;;;;4733004;30;20147;-80
2020/12/19 11:40:17;;;;;;;17.02;11.95;;;1.30;99.90;;;;;;4738003;30;20510;-78
2020/12/19 11:42:45;;;;;;;13.25;9.80;;;1.30;99.90;;;;;;4739140;30;20421;-80
2020/12/19 11:45:13;;;;;;;11.52;8.88;;;1.30;99.90;;;;;;4735457;30;20479;-79
2020/12/19 11:47:40;;;;;;;14.07;9.52;;;1.30;99.90;;;;;;4733255;30;20044;-79
2020/12/19 11:50:13;;;;;;;12.90;9.63;;;1.30;99.90;;;;;;4733527;30;20075;-79
2020/12/19 11:52:40;;;;;;;14.80;9.90;;;1.40;99.90;;;;;;4733619;30;20052;-79
2020/12/19 11:55:07;;;;;;;14.25;10.75;;;1.40;99.90;;;;;;4734038;30;20131;-80
2020/12/19 11:57:35;;;;;;;13.75;10.30;;;1.40;99.90;;;;;;4733522;30;20410;-79
2020/12/19 12:00:03;;;;;;;13.13;9.68;;;1.50;99.90;;;;;;4729983;30;20061;-79
2020/12/19 12:02:30;;;;;;;12.82;9.30;;;1.50;99.90;;;;;;4716423;30;20057;-80
2020/12/19 12:04:58;;;;;;;29.17;18.67;;;1.50;99.90;;;;;;4715845;30;20059;-80
2020/12/19 12:07:30;;;;;;;22.83;14.70;;;1.60;99.90;;;;;;4718012;30;20052;-79
2020/12/19 12:09:57;;;;;;;13.30;9.35;;;1.60;99.90;;;;;;4714865;30;20534;-79
2020/12/19 12:12:25;;;;;;;13.48;9.68;;;1.70;99.90;;;;;;4715904;30;20059;-79
2020/12/19 12:14:57;;;;;;;12.98;9.52;;;1.60;99.90;;;;;;4715697;30;20510;-79
2020/12/19 12:17:24;;;;;;;17.30;11.18;;;1.60;99.90;;;;;;4715758;30;20096;-79
2020/12/19 12:19:51;;;;;;;14.18;10.40;;;1.60;99.90;;;;;;4714887;30;20067;-80
2020/12/19 12:22:19;;;;;;;14.32;9.35;;;1.60;99.90;;;;;;4714943;30;20529;-79
2020/12/19 12:24:46;;;;;;;13.38;9.90;;;1.60;99.90;;;;;;4715976;30;20115;-79
2020/12/19 12:27:13;;;;;;;13.07;9.27;;;1.60;99.90;;;;;;4715844;30;20048;-80
2020/12/19 12:29:40;;;;;;;15.70;11.00;;;1.60;99.90;;;;;;4716063;30;20052;-79
2020/12/19 12:32:07;;;;;;;14.63;10.18;;;1.70;99.90;;;;;;4715635;30;20053;-79
2020/12/19 12:34:34;;;;;;;16.25;10.70;;;1.70;99.90;;;;;;4715529;30;20423;-79
2020/12/19 12:37:02;;;;;;;13.02;10.68;;;1.70;99.90;;;;;;4730035;30;20059;-79
2020/12/19 12:39:30;;;;;;;15.00;11.00;;;1.80;99.90;;;;;;4714635;30;20052;-79
2020/12/19 12:41:57;;;;;;;14.40;10.77;;;1.80;99.90;;;;;;4715579;30;20463;-79
2020/12/19 12:44:24;;;;;;;14.95;10.10;;;1.80;99.90;;;;;;4725377;30;20052;-79
2020/12/19 12:46:56;;;;;;;13.93;10.10;;;1.80;99.90;;;;;;4732956;30;20115;-79
2020/12/19 12:49:24;;;;;;;15.75;10.48;;;1.90;99.90;;;;;;4731775;30;20053;-79
2020/12/19 12:51:51;;;;;;;26.25;17.60;;;1.90;99.90;;;;;;4732783;30;20052;-79